Time;durP1;ratioP1;P1;durP2;ratioP2;P2;SDS_P1;SDS_P2;PMS_P1;PMS_P2;Temp;Humidity;BMP_temperature;BMP_pressure;BME280_temperature;BME280_humidity;BME280_pressure;Samples;Min_cycle;Max_cycle;Signal;HPM_P1;HPM_P2
2022/08/03 11:18:18;;;;;;;;;;;;;;;;;;;;;
2022/08/03 14:40:08;;;;;;;31.02;28.10;;;30.30;69.40;;;;;;6053363;23;20110;-91
2022/08/03 14:46:52;;;;;;;15.82;14.23;;;30.40;69.10;;;;;;6067762;23;20089;-90
2022/08/03 15:03:55;;;;;;;;;;;;;;;;;;;;;
2022/08/03 15:07:06;;;;;;;;;;;;;;;;;;;;;
2022/08/03 15:10:36;;;;;;;;;;;;;;;;;;;;;
2022/08/03 15:46:49;;;;;;;;;;;;;;;;;;;;;
2022/08/03 17:31:48;;;;;;;3.50;1.38;;;30.60;67.30;;;;;;6207689;22;20088;-84
2022/08/03 17:34:16;;;;;;;4.22;1.92;;;30.60;67.00;;;;;;6277583;22;20011;-83
2022/08/03 17:36:43;;;;;;;5.03;1.88;;;30.60;66.90;;;;;;6278879;22;20004;-83
2022/08/03 17:39:21;;;;;;;4.80;1.92;;;30.60;67.30;;;;;;6251207;22;20023;-84
2022/08/03 17:41:49;;;;;;;3.50;1.40;;;30.60;67.60;;;;;;6278639;22;20080;-82
2022/08/03 17:44:18;;;;;;;4.45;1.48;;;30.60;68.10;;;;;;6277554;22;19999;-84
2022/08/03 17:46:44;;;;;;;5.50;1.40;;;30.60;68.10;;;;;;6279487;22;20011;-83
2022/08/03 17:49:10;;;;;;;4.47;1.75;;;30.50;68.80;;;;;;6279969;22;20084;-83
2022/08/03 17:51:56;;;;;;;4.20;1.63;;;30.50;68.50;;;;;;6277050;22;20326;-84
2022/08/03 17:54:39;;;;;;;3.20;1.48;;;30.50;68.60;;;;;;6277328;22;20000;-85
2022/08/03 17:57:11;;;;;;;3.67;1.67;;;30.40;69.20;;;;;;6275851;22;20008;-83
2022/08/03 18:03:27;;;;;;;10.95;8.98;;;30.40;69.90;;;;;;6201210;22;20006;-85
2022/08/03 18:05:59;;;;;;;7.97;6.53;;;30.40;70.40;;;;;;6276622;22;20303;-84
2022/08/03 18:08:30;;;;;;;8.02;6.90;;;30.30;70.80;;;;;;6277591;22;20077;-85
2022/08/03 18:11:03;;;;;;;9.23;6.15;;;30.30;71.10;;;;;;6276899;22;20026;-84
2022/08/03 18:13:39;;;;;;;5.72;3.75;;;30.30;71.40;;;;;;6277028;22;20000;-83
2022/08/03 18:16:11;;;;;;;5.32;2.33;;;30.20;70.40;;;;;;6276398;22;19996;-84
2022/08/03 18:18:41;;;;;;;5.47;2.03;;;30.20;69.50;;;;;;6276958;22;20004;-85
2022/08/03 18:21:11;;;;;;;6.32;1.52;;;30.20;69.10;;;;;;6279397;22;20000;-84
2022/08/03 18:23:38;;;;;;;3.92;1.60;;;30.10;68.80;;;;;;6276067;22;20448;-84
2022/08/03 18:26:08;;;;;;;3.80;1.77;;;30.10;68.40;;;;;;6276209;22;20314;-82
2022/08/03 18:28:39;;;;;;;2.90;1.42;;;30.10;68.40;;;;;;6276672;22;20003;-84
2022/08/03 18:31:12;;;;;;;3.83;1.67;;;30.10;68.20;;;;;;6276062;22;19996;-87
2022/08/03 18:33:40;;;;;;;2.92;1.50;;;30.00;67.60;;;;;;6276096;22;20012;-83
2022/08/03 18:36:10;;;;;;;3.85;1.42;;;29.90;67.50;;;;;;6275239;22;20075;-85
2022/08/03 18:38:39;;;;;;;3.67;1.50;;;29.90;67.70;;;;;;6275168;22;20004;-86
2022/08/03 18:41:08;;;;;;;2.47;1.40;;;29.90;67.70;;;;;;6275476;22;20414;-86
2022/08/03 18:43:43;;;;;;;2.42;1.38;;;29.90;68.00;;;;;;6275886;22;19996;-83
2022/08/03 18:46:34;;;;;;;2.67;1.80;;;29.80;68.10;;;;;;6274619;22;20026;-83
2022/08/03 18:49:14;;;;;;;3.88;2.08;;;29.80;68.40;;;;;;6274127;22;20004;-83
2022/08/03 18:51:42;;;;;;;4.72;2.00;;;29.80;68.10;;;;;;6274062;22;20002;-84
2022/08/03 18:54:24;;;;;;;4.95;1.60;;;29.70;68.10;;;;;;6274689;22;20003;-84
2022/08/03 18:56:59;;;;;;;4.05;1.90;;;29.70;68.60;;;;;;6274269;22;20007;-85
2022/08/03 18:59:48;;;;;;;3.97;1.52;;;29.70;68.20;;;;;;6274864;22;20053;-85
2022/08/03 19:02:47;;;;;;;4.18;1.60;;;29.70;68.10;;;;;;6275353;22;20378;-83
2022/08/03 19:05:17;;;;;;;3.08;1.65;;;29.60;68.20;;;;;;6277505;22;20414;-82
2022/08/03 19:08:06;;;;;;;5.05;2.03;;;29.60;68.20;;;;;;6276879;22;20086;-83
2022/08/03 19:10:36;;;;;;;3.33;1.60;;;29.50;68.30;;;;;;6276142;22;20492;-83
2022/08/03 19:13:18;;;;;;;3.08;1.65;;;29.50;68.40;;;;;;6277199;22;20014;-84
2022/08/03 19:15:49;;;;;;;4.80;2.08;;;29.50;68.70;;;;;;6278608;22;20307;-85
2022/08/03 19:18:16;;;;;;;4.85;1.75;;;29.50;68.70;;;;;;6276565;22;20000;-84
2022/08/03 19:20:45;;;;;;;2.85;1.70;;;29.50;68.70;;;;;;6276723;22;20083;-84
2022/08/03 19:23:23;;;;;;;3.22;1.55;;;29.40;68.70;;;;;;6276387;22;20000;-84
2022/08/03 19:25:50;;;;;;;3.88;1.63;;;29.40;69.00;;;;;;6279396;22;20002;-86
2022/08/03 19:28:16;;;;;;;6.70;2.08;;;29.40;69.30;;;;;;6294942;22;19984;-84
2022/08/03 19:30:43;;;;;;;5.15;1.60;;;29.40;69.30;;;;;;6304185;22;20023;-84
2022/08/03 19:33:13;;;;;;;2.95;1.55;;;29.30;69.10;;;;;;6304598;22;20228;-86
2022/08/03 19:35:50;;;;;;;3.50;1.42;;;29.20;69.50;;;;;;6303369;22;20003;-83
2022/08/03 19:38:21;;;;;;;3.88;1.80;;;29.20;69.80;;;;;;6278628;22;20188;-86
2022/08/03 19:40:54;;;;;;;4.20;1.48;;;29.20;70.10;;;;;;6303144;22;20030;-82
2022/08/03 19:43:24;;;;;;;5.60;1.70;;;29.10;70.00;;;;;;6278747;22;20034;-85
2022/08/03 19:45:54;;;;;;;4.45;1.85;;;29.10;69.90;;;;;;6277841;22;20422;-87
2022/08/03 19:48:25;;;;;;;5.00;1.95;;;29.10;69.90;;;;;;6276607;22;20516;-84
2022/08/03 19:50:52;;;;;;;3.50;2.20;;;29.10;70.00;;;;;;6276805;22;20011;-88
2022/08/03 19:53:23;;;;;;;5.35;1.95;;;29.00;70.20;;;;;;6277022;22;20003;-84
2022/08/03 19:55:52;;;;;;;4.78;1.90;;;29.00;70.90;;;;;;6276620;22;19999;-82
